Delta Virtual Airport Information Service

Manchester Airport

ICAO: EGCC Country: United Kingdom
Latitude: 53.3537 Longitude: -2.27495
Latest Arrival : BAW7065311 (EGLL-EGCC) Latest Departure : BAW7065311 (EGCC-EGLL)


WX CaptureLIVE
Data provided by noaa.gov | Fetched at 15:09:06

METAR : EGCC 091950Z AUTO VRB03KT 9999 NCD 20/15 Q1018 NOSIG

TAF : EGCC 091657Z 0918/1024 09006KT 9999 SCT030 PROB40 TEMPO 1003/1009 6000 SHRA TEMPO 1018/1024 6000 SHRA PROB40 TEMPO 1018/1024 VRB20G35KT 4000 +SHRA


Runway Data for EGCC
Data provided by openaviationdata.com

Runway ID Mag Var Hdg Length Elevation Surface ILS Freq ILS Id ILS Slope
05L -4 55° 9988 ft 257 ft Asphalt 109.5 IMM 3
05R -4 55° 9978 ft 257 ft Asphalt 111.55 IMC 3
23L -4 235° 9978 ft 257 ft Asphalt -- -- --
23R -4 235° 9988 ft 257 ft Asphalt 109.5 INN 3

Manchester Airport, United Kingdom
Use only for reference purposes



Not for navigational purposes.